Time;durP1;ratioP1;P1;durP2;ratioP2;P2;SDS_P1;SDS_P2;PMS_P1;PMS_P2;Temp;Humidity;BMP_temperature;BMP_pressure;BME280_temperature;BME280_humidity;BME280_pressure;Samples;Min_cycle;Max_cycle;Signal;HPM_P1;HPM_P2
2022/06/16 00:01:30;;;;;;;2.10;1.63;;;20.80;60.00;;;;;;5056050;28;20045;-70
2022/06/16 00:03:57;;;;;;;2.72;1.70;;;20.80;59.90;;;;;;5066389;28;20127;-70
2022/06/16 00:06:23;;;;;;;2.97;1.55;;;20.90;57.70;;;;;;5068617;28;20051;-70
2022/06/16 00:08:51;;;;;;;1.60;1.50;;;20.80;55.50;;;;;;5069906;28;20432;-70
2022/06/16 00:11:19;;;;;;;2.40;1.55;;;21.60;59.30;;;;;;5069521;28;20053;-70
2022/06/16 00:13:46;;;;;;;3.40;1.63;;;20.50;58.90;;;;;;5068035;28;20044;-71
2022/06/16 00:16:13;;;;;;;2.13;1.80;;;20.70;55.50;;;;;;5068558;28;20084;-71
2022/06/16 00:18:40;;;;;;;1.70;1.40;;;21.70;59.00;;;;;;5057848;28;20049;-70
2022/06/16 00:21:08;;;;;;;2.47;1.50;;;20.80;59.30;;;;;;5054872;28;20420;-70
2022/06/16 00:23:35;;;;;;;3.30;1.85;;;20.80;59.00;;;;;;5067743;28;20130;-71
2022/06/16 00:26:03;;;;;;;2.25;1.60;;;20.70;60.00;;;;;;5069696;28;20044;-70
2022/06/16 00:28:29;;;;;;;2.60;1.63;;;20.70;55.50;;;;;;5068976;28;20079;-70
2022/06/16 00:31:02;;;;;;;1.85;1.42;;;20.70;55.50;;;;;;5069217;28;20136;-69
2022/06/16 00:33:28;;;;;;;1.63;1.40;;;20.50;59.30;;;;;;5068971;28;20461;-71
2022/06/16 00:35:55;;;;;;;2.08;1.60;;;20.60;59.40;;;;;;5066611;28;20147;-70
2022/06/16 00:38:23;;;;;;;3.28;1.60;;;20.80;60.00;;;;;;5069128;28;20048;-70
2022/06/16 00:40:49;;;;;;;2.42;1.60;;;20.60;59.90;;;;;;5068885;28;20664;-71
2022/06/16 00:43:18;;;;;;;2.47;1.60;;;20.70;60.20;;;;;;5067430;28;20131;-71
2022/06/16 00:45:46;;;;;;;2.17;1.70;;;20.60;55.50;;;;;;5067978;28;20143;-71
2022/06/16 00:48:15;;;;;;;3.35;1.60;;;20.70;59.30;;;;;;5068793;28;20083;-70
2022/06/16 00:50:42;;;;;;;1.80;1.40;;;20.70;59.30;;;;;;5067518;28;20083;-69
2022/06/16 00:53:09;;;;;;;1.98;1.40;;;21.50;59.60;;;;;;5047162;28;20055;-69
2022/06/16 00:55:36;;;;;;;1.35;1.20;;;20.60;59.50;;;;;;5048898;28;20493;-69
2022/06/16 00:58:02;;;;;;;2.25;1.60;;;20.50;58.70;;;;;;5048626;28;20049;-70
2022/06/16 01:00:31;;;;;;;2.60;1.75;;;20.50;59.10;;;;;;5048990;28;20049;-70
2022/06/16 01:02:58;;;;;;;2.63;1.70;;;20.60;55.60;;;;;;5064505;28;20044;-70
2022/06/16 01:05:23;;;;;;;1.90;1.48;;;20.60;55.60;;;;;;5067874;28;20056;-71
2022/06/16 01:07:50;;;;;;;1.75;1.48;;;20.10;59.30;;;;;;5061905;28;20143;-70
2022/06/16 01:10:17;;;;;;;2.22;1.40;;;21.90;60.10;;;;;;5049031;28;20469;-70
2022/06/16 01:15:49;;;;;;;;;;;20.60;55.60;;;;;;5067671;28;20413;-70
2022/06/16 01:18:29;;;;;;;2.30;1.40;;;20.60;59.70;;;;;;5068678;28;19924;-70
2022/06/16 01:20:59;;;;;;;1.90;1.45;;;20.50;55.70;;;;;;5067327;28;20087;-70
2022/06/16 01:24:03;;;;;;;1.70;1.40;;;20.30;60.00;;;;;;5068172;28;20124;-70
2022/06/16 01:26:54;;;;;;;3.55;1.70;;;20.40;58.00;;;;;;5048377;28;20136;-71
2022/06/16 01:29:26;;;;;;;2.58;1.70;;;20.40;55.60;;;;;;5048506;28;20132;-71
2022/06/16 01:31:57;;;;;;;2.25;1.40;;;20.40;55.60;;;;;;5047255;28;20547;-70
2022/06/16 01:34:27;;;;;;;2.47;1.35;;;20.40;55.60;;;;;;5046686;28;20144;-70
2022/06/16 01:36:55;;;;;;;2.95;1.52;;;20.60;55.70;;;;;;5048523;28;20053;-70
2022/06/16 01:39:26;;;;;;;1.95;1.30;;;20.50;55.70;;;;;;5047446;28;20053;-70
2022/06/16 01:41:55;;;;;;;2.45;1.77;;;20.30;59.50;;;;;;5048493;28;20486;-70
2022/06/16 01:44:25;;;;;;;2.55;1.52;;;20.60;55.70;;;;;;5058720;28;20131;-71
2022/06/16 01:46:53;;;;;;;1.90;1.48;;;20.40;59.90;;;;;;5068480;28;20056;-69
2022/06/16 01:49:21;;;;;;;2.40;1.40;;;19.20;59.40;;;;;;5066492;28;20131;-70
2022/06/16 01:51:50;;;;;;;3.03;1.50;;;20.30;59.70;;;;;;5067359;28;20106;-70
2022/06/16 01:54:18;;;;;;;2.15;1.60;;;20.40;59.70;;;;;;5067055;28;20051;-71
2022/06/16 01:56:46;;;;;;;2.00;1.30;;;20.40;55.60;;;;;;5068499;28;20404;-69
2022/06/16 01:59:14;;;;;;;1.92;1.52;;;20.40;58.80;;;;;;5067186;28;20075;-70
2022/06/16 02:01:44;;;;;;;2.50;1.33;;;20.00;59.30;;;;;;5067953;28;20052;-71
2022/06/16 02:04:13;;;;;;;2.63;1.50;;;21.00;60.10;;;;;;5066547;28;20238;-70
2022/06/16 02:06:41;;;;;;;1.70;1.30;;;20.60;59.40;;;;;;5066284;28;20052;-71
2022/06/16 02:09:09;;;;;;;2.13;1.40;;;20.50;59.60;;;;;;5067913;28;20044;-70
2022/06/16 02:11:36;;;;;;;1.65;1.40;;;20.30;59.40;;;;;;5067736;28;20044;-70
2022/06/16 02:14:06;;;;;;;1.98;1.50;;;20.40;55.60;;;;;;5066959;28;20052;-70
2022/06/16 02:16:33;;;;;;;1.85;1.45;;;19.80;58.20;;;;;;5068285;28;20554;-70
2022/06/16 02:19:02;;;;;;;2.75;1.50;;;20.30;55.60;;;;;;5068286;28;20055;-72
2022/06/16 02:21:31;;;;;;;2.60;1.38;;;19.70;59.20;;;;;;5066964;28;20053;-71
2022/06/16 02:23:58;;;;;;;1.83;1.40;;;20.30;55.60;;;;;;5052273;28;20055;-70
2022/06/16 02:26:25;;;;;;;1.80;1.30;;;20.40;58.10;;;;;;5046836;28;20150;-71
2022/06/16 02:28:53;;;;;;;1.77;1.30;;;20.10;59.30;;;;;;5050805;28;20501;-71
2022/06/16 02:31:30;;;;;;;1.90;1.48;;;20.30;59.90;;;;;;5051738;28;20145;-69
2022/06/16 02:34:03;;;;;;;2.72;1.35;;;20.30;55.60;;;;;;5050179;28;20132;-70
2022/06/16 02:36:43;;;;;;;2.10;1.50;;;20.30;58.20;;;;;;5051871;28;20127;-71
2022/06/16 02:39:16;;;;;;;2.20;1.35;;;21.00;60.20;;;;;;5052851;28;20179;-71
2022/06/16 02:41:46;;;;;;;3.20;1.40;;;20.20;61.00;;;;;;5050384;28;20052;-71
2022/06/16 02:44:17;;;;;;;2.22;1.50;;;21.30;60.30;;;;;;5060219;28;20417;-71
2022/06/16 02:46:49;;;;;;;1.95;1.60;;;20.20;55.60;;;;;;5069597;28;20500;-70
2022/06/16 02:49:22;;;;;;;2.53;1.50;;;19.10;59.20;;;;;;5071339;28;20067;-71
2022/06/16 02:51:55;;;;;;;2.92;1.90;;;20.20;55.60;;;;;;5071393;28;20050;-70
2022/06/16 02:54:23;;;;;;;2.40;1.60;;;20.20;55.60;;;;;;5071023;28;20148;-70
2022/06/16 02:56:53;;;;;;;1.90;1.40;;;19.90;60.10;;;;;;5070508;28;20045;-70
2022/06/16 02:59:23;;;;;;;2.13;1.50;;;20.20;55.70;;;;;;5071440;28;20051;-71
2022/06/16 03:01:49;;;;;;;1.75;1.48;;;20.90;60.10;;;;;;5069622;28;20139;-70
2022/06/16 03:04:17;;;;;;;2.17;1.63;;;20.10;55.70;;;;;;5069696;28;20055;-71
2022/06/16 03:06:45;;;;;;;1.92;1.70;;;20.20;60.60;;;;;;5069604;28;20137;-70
2022/06/16 03:09:12;;;;;;;2.10;1.50;;;20.20;55.70;;;;;;5069215;28;20136;-70
2022/06/16 03:11:39;;;;;;;1.40;1.30;;;20.10;59.70;;;;;;5069680;28;20056;-70
2022/06/16 03:14:06;;;;;;;1.77;1.40;;;19.40;59.10;;;;;;5070818;28;20066;-71
2022/06/16 03:16:33;;;;;;;1.80;1.42;;;20.20;58.40;;;;;;5070771;28;20044;-70
2022/06/16 03:19:00;;;;;;;1.90;1.35;;;20.20;60.10;;;;;;5070393;28;20044;-73
2022/06/16 03:21:26;;;;;;;2.75;1.50;;;20.10;55.70;;;;;;5070204;28;20451;-71
2022/06/16 03:23:54;;;;;;;2.20;1.33;;;19.00;58.80;;;;;;5048647;28;20088;-72
2022/06/16 03:26:21;;;;;;;2.60;1.50;;;20.30;58.50;;;;;;5050505;28;20060;-71
2022/06/16 03:28:49;;;;;;;2.50;1.58;;;21.00;60.30;;;;;;5049529;28;20049;-71
2022/06/16 03:31:16;;;;;;;2.10;1.40;;;20.10;55.70;;;;;;5050702;28;20049;-70
2022/06/16 03:33:43;;;;;;;2.47;1.30;;;20.20;59.80;;;;;;5050305;28;20053;-71
2022/06/16 03:36:10;;;;;;;1.92;1.50;;;21.00;60.70;;;;;;5049598;28;20581;-71
2022/06/16 03:38:41;;;;;;;2.70;1.40;;;20.20;60.80;;;;;;5051416;28;20045;-71
2022/06/16 03:41:09;;;;;;;1.40;1.17;;;20.10;55.80;;;;;;5050319;28;20056;-70
2022/06/16 03:43:36;;;;;;;2.47;1.40;;;20.20;59.40;;;;;;5055497;28;20049;-70
2022/06/16 03:46:02;;;;;;;2.72;1.40;;;20.10;55.80;;;;;;5070081;28;20676;-70
2022/06/16 03:48:29;;;;;;;1.83;1.30;;;20.10;55.70;;;;;;5070330;28;20058;-70
2022/06/16 03:50:56;;;;;;;2.58;1.35;;;20.10;55.70;;;;;;5070350;28;20048;-71
2022/06/16 03:53:22;;;;;;;1.90;1.25;;;20.10;55.80;;;;;;5069993;28;20561;-71
2022/06/16 03:55:49;;;;;;;2.63;1.50;;;20.10;55.70;;;;;;5067934;28;20138;-71
2022/06/16 03:58:17;;;;;;;2.33;1.48;;;20.10;59.70;;;;;;5069974;28;20056;-71
2022/06/16 04:00:44;;;;;;;2.13;1.52;;;20.10;59.50;;;;;;5069397;28;20052;-71
2022/06/16 04:05:55;;;;;;;2.53;1.48;;;20.10;55.80;;;;;;5069917;28;20135;-71
2022/06/16 04:08:22;;;;;;;1.52;1.20;;;20.10;55.80;;;;;;5068536;28;20071;-70
2022/06/16 04:10:49;;;;;;;2.38;1.50;;;20.10;55.80;;;;;;5067896;28;20056;-70
2022/06/16 04:13:17;;;;;;;2.22;1.42;;;19.90;60.10;;;;;;5069345;28;20056;-70
2022/06/16 04:15:44;;;;;;;1.83;1.30;;;20.00;55.70;;;;;;5069770;28;20075;-70
2022/06/16 04:18:11;;;;;;;1.38;1.27;;;20.10;55.80;;;;;;5069591;28;20397;-71
2022/06/16 04:20:37;;;;;;;1.30;1.20;;;20.00;55.80;;;;;;5069582;28;20124;-70
2022/06/16 04:23:04;;;;;;;2.85;1.40;;;20.00;59.20;;;;;;5069254;28;20044;-70
2022/06/16 04:25:33;;;;;;;1.50;1.13;;;20.20;59.30;;;;;;5055747;28;20063;-70
2022/06/16 04:28:00;;;;;;;2.75;1.20;;;20.00;55.80;;;;;;5057236;28;20396;-70
2022/06/16 04:30:28;;;;;;;2.60;1.40;;;20.20;60.50;;;;;;5058159;28;20051;-70
2022/06/16 04:32:57;;;;;;;4.18;1.63;;;20.10;55.80;;;;;;5057938;28;20044;-70
2022/06/16 04:35:24;;;;;;;1.35;1.15;;;20.90;60.20;;;;;;5058426;28;20069;-70
2022/06/16 04:37:51;;;;;;;1.27;1.08;;;20.00;55.80;;;;;;5058227;28;20047;-71
2022/06/16 04:40:17;;;;;;;1.60;1.35;;;20.20;60.60;;;;;;5042128;28;20057;-70
2022/06/16 04:42:44;;;;;;;2.58;1.20;;;20.10;56.00;;;;;;5055746;28;20120;-70
2022/06/16 04:45:11;;;;;;;1.55;1.10;;;20.10;56.00;;;;;;5060822;28;20040;-70
2022/06/16 04:47:39;;;;;;;1.85;1.40;;;20.10;56.00;;;;;;5059954;28;20428;-70
2022/06/16 04:50:07;;;;;;;2.08;1.30;;;20.10;56.00;;;;;;5058395;28;20059;-70
2022/06/16 04:52:34;;;;;;;1.83;1.17;;;20.10;56.10;;;;;;5057922;28;20480;-71
2022/06/16 04:55:01;;;;;;;2.42;1.42;;;20.10;56.10;;;;;;5059659;28;20044;-71
2022/06/16 04:57:27;;;;;;;1.67;1.20;;;19.10;59.20;;;;;;5057564;28;20041;-71
2022/06/16 04:59:54;;;;;;;1.20;1.00;;;20.10;56.10;;;;;;5059539;28;20494;-70
2022/06/16 05:02:21;;;;;;;1.75;1.30;;;20.00;60.20;;;;;;5055572;28;20127;-70
2022/06/16 05:04:49;;;;;;;2.45;1.23;;;19.90;59.50;;;;;;5068598;28;20440;-70
2022/06/16 05:07:16;;;;;;;2.42;1.20;;;20.20;59.60;;;;;;5067681;28;20058;-71
2022/06/16 05:09:43;;;;;;;2.15;1.30;;;20.10;56.10;;;;;;5069199;28;20056;-71
2022/06/16 05:12:10;;;;;;;1.13;1.00;;;20.10;56.10;;;;;;5068693;28;20051;-70
2022/06/16 05:14:37;;;;;;;2.40;1.40;;;19.60;59.40;;;;;;5055364;28;20052;-70
2022/06/16 05:17:05;;;;;;;1.55;1.13;;;20.10;56.00;;;;;;5057811;28;20123;-71
2022/06/16 05:19:32;;;;;;;1.33;1.17;;;20.10;56.00;;;;;;5059241;28;20045;-70
2022/06/16 05:22:01;;;;;;;1.38;1.10;;;20.10;56.00;;;;;;5051473;28;20096;-71
2022/06/16 05:24:27;;;;;;;1.90;1.10;;;20.60;59.40;;;;;;5047346;28;20103;-71
2022/06/16 05:26:54;;;;;;;1.40;1.10;;;20.10;56.00;;;;;;5048670;28;20132;-70
2022/06/16 05:29:21;;;;;;;2.42;1.30;;;20.10;60.40;;;;;;5048863;28;20049;-71
2022/06/16 05:31:48;;;;;;;1.63;1.30;;;20.20;60.10;;;;;;5059441;28;20071;-71
2022/06/16 05:34:14;;;;;;;1.58;1.20;;;20.00;60.20;;;;;;5067318;28;20101;-71
2022/06/16 05:36:43;;;;;;;1.25;1.00;;;19.20;59.60;;;;;;5057464;28;20402;-69
2022/06/16 05:39:11;;;;;;;2.00;1.20;;;20.20;60.40;;;;;;5059864;28;20067;-71
2022/06/16 05:41:38;;;;;;;3.90;1.05;;;20.30;56.10;;;;;;5060344;28;20055;-71
2022/06/16 05:44:05;;;;;;;1.92;1.13;;;20.30;60.30;;;;;;5056708;28;20480;-71
2022/06/16 05:46:32;;;;;;;2.53;1.20;;;20.40;58.60;;;;;;5068689;28;20119;-70
2022/06/16 05:48:59;;;;;;;2.20;1.33;;;20.30;56.00;;;;;;5066691;28;20568;-70
2022/06/16 05:51:25;;;;;;;3.83;1.30;;;20.40;56.00;;;;;;5060052;28;20288;-69
2022/06/16 05:53:52;;;;;;;2.92;1.20;;;20.40;56.00;;;;;;5052200;28;20055;-70
2022/06/16 05:56:20;;;;;;;5.35;1.52;;;20.40;55.40;;;;;;5064172;28;20574;-71
2022/06/16 05:58:47;;;;;;;1.70;1.17;;;20.00;59.60;;;;;;5056108;28;20052;-70
2022/06/16 06:01:14;;;;;;;1.70;1.00;;;20.40;55.90;;;;;;5054916;28;20045;-70
2022/06/16 06:03:41;;;;;;;4.03;1.17;;;20.40;56.00;;;;;;5060307;28;20056;-71
2022/06/16 06:06:08;;;;;;;3.97;1.10;;;20.40;55.90;;;;;;5060219;28;20132;-71
2022/06/16 06:16:53;;;;;;;1.73;1.00;;;20.40;60.00;;;;;;5051121;28;20076;-71
2022/06/16 06:19:26;;;;;;;2.17;1.15;;;20.70;59.60;;;;;;5050881;28;20409;-70
2022/06/16 06:22:00;;;;;;;1.50;1.02;;;20.60;59.80;;;;;;5052185;28;20049;-71
2022/06/16 06:24:28;;;;;;;2.53;1.10;;;21.50;59.80;;;;;;5052585;28;20072;-70
2022/06/16 06:26:56;;;;;;;1.58;1.20;;;20.90;59.80;;;;;;5058940;28;20045;-71
2022/06/16 06:29:23;;;;;;;3.00;1.00;;;20.90;55.50;;;;;;5061359;28;20051;-70
2022/06/16 06:31:50;;;;;;;5.28;1.40;;;21.10;59.60;;;;;;5059565;28;20527;-72
2022/06/16 06:34:16;;;;;;;4.35;1.63;;;20.50;58.70;;;;;;5060276;28;20131;-70
2022/06/16 06:36:43;;;;;;;3.88;1.65;;;20.50;58.90;;;;;;5071414;28;20425;-71
2022/06/16 06:39:11;;;;;;;4.75;1.85;;;21.60;59.30;;;;;;5071737;28;20049;-71
2022/06/16 06:41:38;;;;;;;2.40;1.50;;;21.30;54.90;;;;;;5068781;28;20049;-70
2022/06/16 06:44:06;;;;;;;9.20;2.00;;;21.60;58.80;;;;;;5059607;28;20058;-71
2022/06/16 06:46:33;;;;;;;6.90;2.03;;;21.90;57.30;;;;;;5071213;28;20055;-71
2022/06/16 06:48:59;;;;;;;7.40;2.08;;;22.40;58.60;;;;;;5070427;28;20131;-70
2022/06/16 06:51:26;;;;;;;6.38;1.80;;;21.70;58.70;;;;;;5071368;28;20057;-71
2022/06/16 06:53:53;;;;;;;6.65;1.52;;;22.10;58.00;;;;;;5071255;28;20058;-71
2022/06/16 06:56:20;;;;;;;8.27;2.72;;;22.00;54.20;;;;;;5071574;28;20127;-71
2022/06/16 06:58:47;;;;;;;7.25;1.85;;;22.00;53.80;;;;;;5070231;28;20055;-70
2022/06/16 07:01:15;;;;;;;5.68;2.00;;;21.80;57.80;;;;;;5069869;28;20572;-71
2022/06/16 07:03:42;;;;;;;4.50;2.05;;;22.20;58.10;;;;;;5070725;28;20076;-71
2022/06/16 07:06:08;;;;;;;6.90;1.85;;;22.20;53.40;;;;;;5069617;28;20055;-71
2022/06/16 07:08:35;;;;;;;7.00;1.88;;;22.20;56.90;;;;;;5072213;28;20074;-70
2022/06/16 07:11:02;;;;;;;7.47;2.72;;;22.30;57.50;;;;;;5069623;28;20053;-71
2022/06/16 07:13:29;;;;;;;6.10;1.98;;;22.40;53.10;;;;;;5070473;28;20131;-69
2022/06/16 07:15:55;;;;;;;7.22;1.60;;;22.50;53.10;;;;;;5056337;28;20474;-70
2022/06/16 07:18:23;;;;;;;6.95;1.90;;;22.50;52.90;;;;;;5049523;28;20096;-70
2022/06/16 07:20:51;;;;;;;5.55;1.80;;;22.70;57.40;;;;;;5050795;28;20457;-70
2022/06/16 07:23:19;;;;;;;5.70;1.80;;;22.70;57.20;;;;;;5049688;28;20052;-71
2022/06/16 07:25:46;;;;;;;6.07;1.95;;;22.90;57.30;;;;;;5050932;28;20037;-70
2022/06/16 07:28:13;;;;;;;4.78;1.77;;;22.80;52.60;;;;;;5050635;28;20087;-70
2022/06/16 07:30:40;;;;;;;6.95;2.03;;;22.80;52.60;;;;;;5050119;28;20049;-71
2022/06/16 07:33:07;;;;;;;11.77;2.00;;;22.80;52.50;;;;;;5068253;28;20118;-70
2022/06/16 07:35:40;;;;;;;4.90;1.60;;;22.90;52.50;;;;;;5070641;28;20139;-71
2022/06/16 07:38:07;;;;;;;7.68;1.98;;;22.90;52.40;;;;;;5070271;28;20059;-70
2022/06/16 07:40:33;;;;;;;4.85;1.27;;;23.20;55.80;;;;;;5070128;28;20515;-70
2022/06/16 07:43:00;;;;;;;6.50;1.40;;;22.90;56.10;;;;;;5070075;28;20048;-70
2022/06/16 07:45:28;;;;;;;3.03;1.40;;;23.10;52.30;;;;;;5070307;28;20052;-70
2022/06/16 07:47:57;;;;;;;3.40;1.52;;;23.10;52.30;;;;;;5069221;28;20343;-69
2022/06/16 07:50:24;;;;;;;3.63;1.52;;;23.20;52.20;;;;;;5069575;28;20444;-71
2022/06/16 07:52:52;;;;;;;2.70;1.40;;;23.20;52.20;;;;;;5069010;28;20048;-71
2022/06/16 07:55:20;;;;;;;3.92;1.40;;;23.30;52.20;;;;;;5069153;28;20401;-70
2022/06/16 07:57:48;;;;;;;3.83;1.30;;;24.20;56.40;;;;;;5070283;28;20052;-71
2022/06/16 08:00:17;;;;;;;2.55;1.30;;;23.30;52.10;;;;;;5063817;28;20576;-70
2022/06/16 08:02:44;;;;;;;3.17;1.50;;;23.30;52.00;;;;;;5058231;28;20048;-71
2022/06/16 08:05:11;;;;;;;2.20;1.15;;;23.30;52.00;;;;;;5051103;28;20045;-70
2022/06/16 08:07:38;;;;;;;3.47;1.27;;;23.40;52.00;;;;;;5048709;28;20064;-71
2022/06/16 08:10:08;;;;;;;2.42;1.17;;;23.40;52.00;;;;;;5049988;28;20047;-70
2022/06/16 08:12:37;;;;;;;2.20;1.33;;;23.40;51.90;;;;;;5049689;28;20051;-71
2022/06/16 08:15:04;;;;;;;2.88;1.20;;;23.50;55.60;;;;;;5050001;28;20049;-71
2022/06/16 08:17:33;;;;;;;1.65;1.23;;;23.50;51.90;;;;;;5048271;28;20512;-72
2022/06/16 08:20:00;;;;;;;4.70;1.33;;;23.40;55.80;;;;;;5048251;28;20139;-69
2022/06/16 08:22:27;;;;;;;1.73;1.20;;;23.50;55.90;;;;;;5067517;28;20076;-70
2022/06/16 08:24:55;;;;;;;1.90;1.13;;;23.70;56.50;;;;;;5068679;28;20051;-71
2022/06/16 08:27:24;;;;;;;2.40;1.20;;;23.50;51.80;;;;;;5069449;28;20452;-71
2022/06/16 08:29:50;;;;;;;2.80;1.17;;;23.40;53.90;;;;;;5069170;28;20045;-71
2022/06/16 08:32:18;;;;;;;1.83;1.23;;;23.60;52.40;;;;;;5066178;28;20074;-72
2022/06/16 08:34:45;;;;;;;2.55;1.20;;;23.60;51.80;;;;;;5067302;28;20072;-72
2022/06/16 08:37:11;;;;;;;2.78;1.13;;;23.60;51.70;;;;;;5068764;28;20420;-71
2022/06/16 08:39:38;;;;;;;1.83;1.10;;;22.50;55.20;;;;;;5049763;28;20049;-71
2022/06/16 08:42:09;;;;;;;1.98;1.10;;;24.70;56.50;;;;;;5048399;28;20131;-72
2022/06/16 08:44:40;;;;;;;2.78;1.27;;;23.60;51.70;;;;;;5065517;28;20164;-71
2022/06/16 08:47:10;;;;;;;1.90;1.33;;;25.00;57.20;;;;;;5066799;28;20135;-71
2022/06/16 08:49:41;;;;;;;2.00;1.08;;;23.60;51.80;;;;;;5065888;28;20436;-71
2022/06/16 08:52:15;;;;;;;1.85;1.10;;;23.60;51.70;;;;;;5047456;28;20059;-71
2022/06/16 08:54:48;;;;;;;;;;;23.70;51.70;;;;;;5049161;28;20140;-72
2022/06/16 08:57:21;;;;;;;1.77;1.10;;;23.60;52.00;;;;;;5047547;28;20012;-72
2022/06/16 08:59:51;;;;;;;1.83;1.20;;;23.80;55.80;;;;;;5047569;28;20095;-71
2022/06/16 09:02:20;;;;;;;1.85;1.05;;;23.70;51.80;;;;;;5059842;28;20770;-71
2022/06/16 09:04:49;;;;;;;1.90;1.10;;;23.70;56.60;;;;;;5067459;28;20447;-71
2022/06/16 09:07:22;;;;;;;1.75;1.00;;;23.70;55.90;;;;;;5067593;28;20052;-71
2022/06/16 09:13:05;;;;;;;3.22;1.20;;;23.70;51.70;;;;;;4974604;28;20081;-71
2022/06/16 09:15:35;;;;;;;1.70;1.05;;;23.70;51.70;;;;;;5039761;28;20053;-71
2022/06/16 09:18:20;;;;;;;2.00;1.10;;;23.70;51.70;;;;;;5047624;28;20092;-71
2022/06/16 09:20:47;;;;;;;3.05;1.17;;;23.70;51.70;;;;;;5052723;28;20123;-71
2022/06/16 09:23:29;;;;;;;1.85;1.30;;;23.20;55.90;;;;;;5058621;28;20045;-70
2022/06/16 09:26:03;;;;;;;2.35;0.90;;;23.70;51.80;;;;;;5057695;28;20055;-70
2022/06/16 09:28:31;;;;;;;2.47;1.00;;;23.70;51.40;;;;;;5058202;28;20135;-71
2022/06/16 09:31:01;;;;;;;1.10;0.90;;;23.70;51.70;;;;;;5057015;28;20315;-71
2022/06/16 09:33:29;;;;;;;1.23;0.90;;;23.50;55.40;;;;;;5057417;28;20075;-70
2022/06/16 09:35:59;;;;;;;2.42;1.02;;;23.90;55.70;;;;;;5058937;28;20090;-70
2022/06/16 09:38:28;;;;;;;2.05;1.00;;;24.60;55.50;;;;;;5060670;28;20083;-70
2022/06/16 09:40:58;;;;;;;2.35;0.93;;;24.90;56.60;;;;;;5063550;28;20044;-70
2022/06/16 09:43:28;;;;;;;1.42;1.00;;;23.70;51.70;;;;;;5063141;28;20095;-70
2022/06/16 09:45:57;;;;;;;3.35;1.05;;;23.70;55.80;;;;;;5067236;28;20049;-71
2022/06/16 09:48:28;;;;;;;1.17;0.90;;;23.70;52.30;;;;;;5072943;28;20044;-71
2022/06/16 09:50:56;;;;;;;3.17;1.00;;;23.60;55.90;;;;;;5072791;28;20486;-71
2022/06/16 09:53:30;;;;;;;2.03;0.90;;;24.20;55.60;;;;;;5072235;28;20087;-70
2022/06/16 09:56:00;;;;;;;1.70;1.00;;;23.70;51.70;;;;;;5071388;28;20055;-70
2022/06/16 09:58:30;;;;;;;1.58;0.90;;;23.70;51.70;;;;;;5072572;28;20123;-70
2022/06/16 10:00:58;;;;;;;1.55;1.10;;;23.70;51.70;;;;;;5061821;28;20071;-70
2022/06/16 10:03:30;;;;;;;1.90;1.10;;;23.60;55.50;;;;;;5072237;28;20053;-72
2022/06/16 10:06:09;;;;;;;1.25;0.88;;;23.60;51.70;;;;;;5071111;28;20106;-71
2022/06/16 10:08:39;;;;;;;1.73;1.08;;;23.80;55.90;;;;;;5070903;28;20056;-71
2022/06/16 10:11:10;;;;;;;1.35;0.90;;;23.60;51.70;;;;;;5072228;28;20071;-70
2022/06/16 10:13:42;;;;;;;1.00;0.90;;;23.60;51.70;;;;;;5070901;28;20128;-70
2022/06/16 10:16:14;;;;;;;3.22;1.00;;;23.40;55.40;;;;;;5071463;28;20048;-70
2022/06/16 10:18:42;;;;;;;1.65;1.08;;;23.60;51.80;;;;;;5072039;28;20099;-71
2022/06/16 10:21:09;;;;;;;2.03;1.00;;;23.60;51.80;;;;;;5071702;28;20592;-70
2022/06/16 10:23:38;;;;;;;1.67;0.98;;;24.10;56.10;;;;;;5071897;28;20050;-71
2022/06/16 10:26:06;;;;;;;2.25;1.00;;;23.60;55.40;;;;;;5070515;28;20051;-71
2022/06/16 10:28:35;;;;;;;1.55;1.00;;;23.60;55.70;;;;;;5069926;28;20045;-70
2022/06/16 10:31:02;;;;;;;3.05;1.10;;;23.50;55.90;;;;;;5071554;28;20063;-71
2022/06/16 10:33:30;;;;;;;4.22;1.00;;;24.00;56.30;;;;;;5069640;28;20056;-71
2022/06/16 10:36:01;;;;;;;1.85;1.00;;;23.40;55.90;;;;;;5068205;28;20493;-70
2022/06/16 10:38:33;;;;;;;1.67;0.90;;;23.50;52.00;;;;;;5057184;28;20069;-70
2022/06/16 10:41:01;;;;;;;2.20;1.20;;;23.50;52.00;;;;;;5051771;28;20053;-71
2022/06/16 10:43:28;;;;;;;1.80;1.10;;;23.30;55.40;;;;;;5054041;28;20055;-70
2022/06/16 10:45:57;;;;;;;2.72;1.35;;;23.50;52.10;;;;;;5071019;28;20139;-71
2022/06/16 10:48:29;;;;;;;2.45;1.10;;;23.60;56.10;;;;;;5069277;28;20055;-71
2022/06/16 10:51:07;;;;;;;1.67;1.05;;;23.40;52.00;;;;;;5071409;28;20052;-71
2022/06/16 10:53:35;;;;;;;2.45;1.23;;;23.30;52.00;;;;;;5071072;28;20048;-70
2022/06/16 10:56:04;;;;;;;3.33;1.45;;;23.30;56.20;;;;;;5071147;28;20669;-72
2022/06/16 10:58:32;;;;;;;1.88;1.17;;;23.60;55.60;;;;;;5067195;28;20060;-70
2022/06/16 11:01:05;;;;;;;1.92;1.20;;;23.40;52.10;;;;;;5051873;28;20045;-71
2022/06/16 11:03:35;;;;;;;1.58;1.25;;;24.50;56.70;;;;;;5070893;28;20048;-71
2022/06/16 11:06:03;;;;;;;2.08;1.10;;;23.60;55.50;;;;;;5069747;28;20049;-71
2022/06/16 11:08:34;;;;;;;1.63;1.20;;;23.30;52.10;;;;;;5069839;28;20140;-71
2022/06/16 11:11:00;;;;;;;1.35;1.13;;;22.90;55.40;;;;;;5064589;28;20059;-71
2022/06/16 11:13:29;;;;;;;1.52;1.10;;;23.40;52.20;;;;;;5060707;28;20045;-71
2022/06/16 11:15:56;;;;;;;3.95;1.20;;;23.30;55.60;;;;;;5058562;28;20076;-70
2022/06/16 11:18:26;;;;;;;1.80;1.20;;;23.40;52.20;;;;;;5060727;28;20049;-71
2022/06/16 11:20:55;;;;;;;3.63;1.25;;;23.00;55.80;;;;;;5061825;28;20049;-71
2022/06/16 11:23:28;;;;;;;2.63;1.48;;;23.40;56.60;;;;;;5067489;28;20127;-71
2022/06/16 11:25:57;;;;;;;1.52;1.10;;;23.40;52.30;;;;;;5058912;28;20049;-69
2022/06/16 11:28:24;;;;;;;2.78;1.10;;;23.40;52.30;;;;;;5050574;28;20077;-70
2022/06/16 11:30:56;;;;;;;2.75;1.33;;;24.20;55.90;;;;;;5051031;28;20055;-71
2022/06/16 11:36:06;;;;;;;2.25;1.40;;;23.40;56.10;;;;;;5070208;28;20489;-70
2022/06/16 11:38:36;;;;;;;1.50;1.10;;;22.90;55.90;;;;;;5070763;28;20560;-70
2022/06/16 11:41:04;;;;;;;3.35;1.00;;;23.80;56.30;;;;;;5069691;28;20072;-71
2022/06/16 11:43:49;;;;;;;2.28;1.40;;;23.40;52.40;;;;;;5067986;28;20049;-70
2022/06/16 11:46:18;;;;;;;1.67;1.10;;;23.40;52.40;;;;;;5060709;28;20123;-70
2022/06/16 11:48:53;;;;;;;3.05;1.48;;;23.40;56.40;;;;;;5070588;28;20159;-70
2022/06/16 11:51:22;;;;;;;1.70;1.38;;;23.30;52.40;;;;;;5068900;28;20045;-70
2022/06/16 11:53:57;;;;;;;2.00;1.35;;;23.30;52.30;;;;;;5062641;28;20431;-70
2022/06/16 11:56:30;;;;;;;2.20;1.27;;;23.40;53.80;;;;;;5050086;28;20490;-71
2022/06/16 11:59:16;;;;;;;1.35;1.15;;;23.20;55.50;;;;;;5058169;28;20135;-71
2022/06/16 12:01:43;;;;;;;;;;;23.40;52.30;;;;;;5057986;28;20049;-71
2022/06/16 12:04:43;;;;;;;1.50;1.30;;;23.30;52.50;;;;;;5059928;28;19920;-73
2022/06/16 12:07:30;;;;;;;2.17;1.50;;;23.10;55.30;;;;;;5057336;28;20051;-70
2022/06/16 12:10:00;;;;;;;2.10;1.40;;;24.70;56.80;;;;;;5057245;28;20048;-71
2022/06/16 12:12:29;;;;;;;3.10;1.52;;;23.30;52.40;;;;;;5049011;28;20053;-69
2022/06/16 12:14:58;;;;;;;2.08;1.50;;;23.30;52.40;;;;;;5049981;28;20597;-71
2022/06/16 12:17:28;;;;;;;1.95;1.40;;;23.30;52.30;;;;;;5050134;28;20391;-69
2022/06/16 12:19:58;;;;;;;2.00;1.50;;;24.30;56.70;;;;;;5050231;28;20053;-71
2022/06/16 12:22:27;;;;;;;4.03;1.50;;;23.30;52.50;;;;;;5049306;28;20045;-70
2022/06/16 12:24:56;;;;;;;1.85;1.40;;;22.50;55.90;;;;;;5049642;28;20055;-71
2022/06/16 12:27:26;;;;;;;2.50;1.45;;;23.50;52.60;;;;;;5049619;28;20041;-72
2022/06/16 12:29:55;;;;;;;12.02;4.25;;;23.20;56.50;;;;;;5068356;28;20103;-70
2022/06/16 12:32:29;;;;;;;8.75;3.15;;;22.40;56.20;;;;;;5069224;28;20787;-71
2022/06/16 12:35:01;;;;;;;5.85;2.38;;;23.30;52.50;;;;;;5069711;28;20055;-70
2022/06/16 12:37:30;;;;;;;3.78;2.10;;;23.30;52.60;;;;;;5068122;28;20067;-71
2022/06/16 12:39:59;;;;;;;2.63;1.90;;;23.30;52.60;;;;;;5068396;28;20054;-71
2022/06/16 12:42:28;;;;;;;3.10;2.00;;;23.30;56.60;;;;;;5068834;28;20054;-71
2022/06/16 12:44:56;;;;;;;4.15;1.88;;;23.30;52.60;;;;;;5067991;28;20136;-70
2022/06/16 12:47:24;;;;;;;3.92;1.90;;;24.20;56.10;;;;;;5068995;28;20048;-71
2022/06/16 12:49:54;;;;;;;6.32;2.08;;;24.00;56.70;;;;;;5068860;28;20045;-70
2022/06/16 12:52:22;;;;;;;2.88;1.80;;;23.30;52.60;;;;;;5068393;28;20078;-71
2022/06/16 12:54:51;;;;;;;4.38;1.80;;;23.40;56.00;;;;;;5069055;28;20058;-71
2022/06/16 12:57:19;;;;;;;3.28;1.88;;;23.30;53.20;;;;;;5067933;28;20044;-71
2022/06/16 12:59:50;;;;;;;3.50;1.83;;;23.30;52.60;;;;;;5067042;28;20064;-70
2022/06/16 13:02:18;;;;;;;3.88;1.73;;;23.30;53.30;;;;;;5067373;28;20088;-72
2022/06/16 13:04:45;;;;;;;2.53;1.73;;;23.50;56.30;;;;;;5066769;28;20139;-71
2022/06/16 13:07:14;;;;;;;6.20;2.22;;;23.40;56.80;;;;;;5067506;28;20052;-71
2022/06/16 13:09:41;;;;;;;2.80;1.77;;;23.30;52.80;;;;;;5069118;28;20045;-71
2022/06/16 13:12:13;;;;;;;3.97;1.80;;;23.30;52.80;;;;;;5067491;28;20139;-71
2022/06/16 13:14:42;;;;;;;3.78;1.83;;;22.30;55.30;;;;;;5068296;28;20508;-71
2022/06/16 13:17:11;;;;;;;2.78;1.80;;;21.20;56.00;;;;;;5069161;28;20049;-71